KCHA/CHA METAR and TAF weather

Enter ICAO airport designator
Station Type Date Time Source
KCHA METAR 2024/04/15 07:53 UTC NOAA

KCHA 150753Z AUTO 23004KT 10SM CLR 20/09 A3000 RMK AO2 SLP152 T02000094


Station Type Date Time Source
KCHA Decoded METAR 2024/04/15 07:53 UTC NOAA

LOVELL FIELD, TN, United States (KCHA) 35-02N 085-12W 210M
Apr 15, 2024 - 03:53 AM EDT / 2024.04.15 0753 UTC
Wind: from the SW (230 degrees) at 5 MPH (4 KT):0
Visibility: 10 mile(s):0
Sky conditions: clear
Temperature: 68.0 F (20.0 C)
Dew Point: 48.9 F (9.4 C)
Relative Humidity: 50%
Pressure (altimeter): 30 in. Hg (1015 hPa)
ob: KCHA 150753Z AUTO 23004KT 10SM CLR 20/09 A3000 RMK AO2 SLP152 T02000094
cycle: 8

Station Type Date Time Source
KCHA TAF 2024/04/15 06:27 UTC NOAA